Time;durP1;ratioP1;P1;durP2;ratioP2;P2;SDS_P1;SDS_P2;PMS_P1;PMS_P2;Temp;Humidity;BMP_temperature;BMP_pressure;BME280_temperature;BME280_humidity;BME280_pressure;Samples;Min_cycle;Max_cycle;Signal;HPM_P1;HPM_P2
2022/07/31 00:01:43;;;;;;;6.03;5.70;;;;;;;;;;5026626;28;20438;-94
2022/07/31 00:04:10;;;;;;;5.73;5.53;;;;;;;;;;5002549;28;20516;-93
2022/07/31 00:09:13;;;;;;;4.53;4.43;;;;;;;;;;5238782;22;20449;-94
2022/07/31 00:11:42;;;;;;;4.87;4.67;;;;;;;;;;5021364;28;20466;-93
2022/07/31 00:14:18;;;;;;;4.60;4.47;;;;;;;;;;4976330;23;20553;-94
2022/07/31 00:19:41;;;;;;;5.37;4.93;;;;;;;;;;5740922;23;20552;-93
2022/07/31 00:22:12;;;;;;;4.70;4.50;;;;;;;;;;4946479;29;20474;-94
2022/07/31 00:24:43;;;;;;;7.20;4.60;;;;;;;;;;4974359;29;20486;-94
2022/07/31 00:38:21;;;;;;;4.57;4.37;;;;;;;;;;5200459;23;20475;-92
2022/07/31 00:43:26;;;;;;;5.83;5.50;;;;;;;;;;5293882;23;20478;-93
2022/07/31 00:45:58;;;;;;;4.70;4.57;;;;;;;;;;5038449;28;20467;-93
2022/07/31 00:51:29;;;;;;;4.50;4.40;;;;;;;;;;5011213;28;20488;-90
2022/07/31 00:53:55;;;;;;;4.80;4.67;;;;;;;;;;4965678;28;20927;-94
2022/07/31 00:56:23;;;;;;;5.43;5.13;;;;;;;;;;5020071;28;20425;-93
2022/07/31 00:58:50;;;;;;;4.80;4.40;;;;;;;;;;5007544;28;20946;-93
2022/07/31 01:01:16;;;;;;;4.67;4.47;;;;;;;;;;5006235;28;20443;-94
2022/07/31 01:03:42;;;;;;;5.37;5.10;;;;;;;;;;5008845;28;20471;-93
2022/07/31 01:06:08;;;;;;;6.13;5.73;;;;;;;;;;5002144;28;20463;-92
2022/07/31 01:08:35;;;;;;;5.20;4.80;;;;;;;;;;4988606;28;20579;-94
2022/07/31 01:11:04;;;;;;;5.97;5.67;;;;;;;;;;5025554;28;20454;-93
2022/07/31 01:13:52;;;;;;;5.77;5.10;;;;;;;;;;4994382;28;20438;-94
2022/07/31 01:16:21;;;;;;;5.53;5.17;;;;;;;;;;5006291;28;20460;-94
2022/07/31 01:18:47;;;;;;;5.17;4.97;;;;;;;;;;5006964;28;20428;-93
2022/07/31 01:21:17;;;;;;;5.60;5.20;;;;;;;;;;5004610;28;20429;-94
2022/07/31 01:24:07;;;;;;;4.70;4.60;;;;;;;;;;4996319;28;20429;-94
2022/07/31 01:26:38;;;;;;;4.87;4.57;;;;;;;;;;4969933;28;20476;-95
2022/07/31 01:29:08;;;;;;;4.73;4.53;;;;;;;;;;5001115;28;20463;-93
2022/07/31 01:31:41;;;;;;;7.07;5.03;;;;;;;;;;5000372;28;20432;-93
2022/07/31 01:34:10;;;;;;;4.90;4.70;;;;;;;;;;5003602;28;20416;-95
2022/07/31 01:36:41;;;;;;;5.60;5.40;;;;;;;;;;5005831;28;20416;-95
2022/07/31 01:39:07;;;;;;;4.53;4.43;;;;;;;;;;5007072;28;20427;-94
2022/07/31 01:41:36;;;;;;;5.80;5.50;;;;;;;;;;4989508;28;21013;-94
2022/07/31 01:44:04;;;;;;;4.90;4.60;;;;;;;;;;5004628;28;20464;-95
2022/07/31 01:46:31;;;;;;;4.83;4.43;;;;;;;;;;4994666;28;20476;-95
2022/07/31 01:49:01;;;;;;;4.80;4.50;;;;;;;;;;5008043;28;20460;-93
2022/07/31 01:51:28;;;;;;;5.30;4.73;;;;;;;;;;5029028;28;20403;-93
2022/07/31 01:53:55;;;;;;;6.47;4.90;;;;;;;;;;4982477;28;20444;-92
2022/07/31 01:56:21;;;;;;;5.10;4.70;;;;;;;;;;4993477;28;20440;-93
2022/07/31 01:58:49;;;;;;;5.10;5.00;;;;;;;;;;4987889;28;20444;-94
2022/07/31 02:01:15;;;;;;;4.93;4.83;;;;;;;;;;4992998;28;20440;-94
2022/07/31 02:03:42;;;;;;;5.07;4.87;;;;;;;;;;5009525;28;20559;-93
2022/07/31 02:06:09;;;;;;;5.37;5.27;;;;;;;;;;4994107;28;20555;-94
2022/07/31 02:08:36;;;;;;;5.30;4.90;;;;;;;;;;5010255;28;20451;-94
2022/07/31 02:11:03;;;;;;;5.07;4.87;;;;;;;;;;4994007;28;20417;-94
2022/07/31 02:13:29;;;;;;;4.87;4.67;;;;;;;;;;4997933;28;20456;-94
2022/07/31 02:15:56;;;;;;;4.90;4.80;;;;;;;;;;4998628;28;20496;-94
2022/07/31 02:18:25;;;;;;;5.47;5.33;;;;;;;;;;4997536;28;20512;-93
2022/07/31 02:20:54;;;;;;;5.23;4.93;;;;;;;;;;5036554;28;20440;-94
2022/07/31 02:23:21;;;;;;;5.40;5.17;;;;;;;;;;5006680;28;20440;-93
2022/07/31 02:25:47;;;;;;;5.53;5.27;;;;;;;;;;4996230;28;20495;-93
2022/07/31 02:28:15;;;;;;;5.70;5.30;;;;;;;;;;5012920;28;20436;-94
2022/07/31 02:30:42;;;;;;;5.40;4.97;;;;;;;;;;4994282;28;20416;-94
2022/07/31 02:33:17;;;;;;;4.57;4.33;;;;;;;;;;4989297;28;20446;-94
2022/07/31 02:35:44;;;;;;;5.00;4.80;;;;;;;;;;4987464;28;20428;-95
2022/07/31 02:38:11;;;;;;;5.83;5.43;;;;;;;;;;4970896;28;20451;-94
2022/07/31 02:40:40;;;;;;;5.13;4.93;;;;;;;;;;4998579;28;20456;-94
2022/07/31 02:43:06;;;;;;;5.17;4.97;;;;;;;;;;5008629;28;20445;-94
2022/07/31 02:45:33;;;;;;;5.50;5.40;;;;;;;;;;4992270;28;20471;-93
2022/07/31 02:47:59;;;;;;;4.83;4.73;;;;;;;;;;4989884;28;20476;-94
2022/07/31 02:50:26;;;;;;;5.30;5.00;;;;;;;;;;4991155;28;20527;-94
2022/07/31 02:52:52;;;;;;;5.30;5.10;;;;;;;;;;5009487;28;20436;-93
2022/07/31 02:55:18;;;;;;;5.33;5.13;;;;;;;;;;4992536;28;20455;-95
2022/07/31 02:57:46;;;;;;;5.03;4.90;;;;;;;;;;4998267;28;20421;-94
2022/07/31 03:00:29;;;;;;;4.80;4.70;;;;;;;;;;5002950;28;20416;-92
2022/07/31 03:02:55;;;;;;;5.03;4.93;;;;;;;;;;4972601;28;20437;-94
2022/07/31 03:05:22;;;;;;;5.40;5.20;;;;;;;;;;4989765;28;20476;-95
2022/07/31 03:07:48;;;;;;;5.57;5.27;;;;;;;;;;5008973;28;20436;-95
2022/07/31 03:10:14;;;;;;;5.23;4.90;;;;;;;;;;4993993;28;20421;-93
2022/07/31 03:12:42;;;;;;;5.00;4.60;;;;;;;;;;5009602;28;20427;-94
2022/07/31 03:15:11;;;;;;;5.67;5.47;;;;;;;;;;5002005;28;20418;-94
2022/07/31 03:17:37;;;;;;;4.77;4.57;;;;;;;;;;4994452;28;20455;-93
2022/07/31 03:20:06;;;;;;;5.43;5.13;;;;;;;;;;5014173;28;20444;-93
2022/07/31 03:22:35;;;;;;;5.37;5.17;;;;;;;;;;4996914;28;20439;-90
2022/07/31 03:25:05;;;;;;;4.90;4.80;;;;;;;;;;4998165;28;20464;-94
2022/07/31 03:27:33;;;;;;;5.83;5.17;;;;;;;;;;4992679;28;20463;-94
2022/07/31 03:29:59;;;;;;;5.50;5.00;;;;;;;;;;4991041;28;20443;-95
2022/07/31 03:32:25;;;;;;;5.43;5.33;;;;;;;;;;5009896;28;20914;-92
2022/07/31 03:34:51;;;;;;;5.03;4.63;;;;;;;;;;4978095;28;20435;-93
2022/07/31 03:37:18;;;;;;;6.03;5.60;;;;;;;;;;5018803;28;20463;-94
2022/07/31 03:39:46;;;;;;;5.03;4.83;;;;;;;;;;5000796;28;20440;-94
2022/07/31 03:42:13;;;;;;;5.40;5.10;;;;;;;;;;5014674;28;20531;-93
2022/07/31 03:44:42;;;;;;;4.57;4.57;;;;;;;;;;4995758;28;20464;-94
2022/07/31 03:47:10;;;;;;;5.53;5.03;;;;;;;;;;4973262;28;20436;-94
2022/07/31 03:49:37;;;;;;;5.30;5.03;;;;;;;;;;4987460;28;20481;-93
2022/07/31 03:52:03;;;;;;;5.23;4.97;;;;;;;;;;5013689;28;20491;-94
2022/07/31 03:54:29;;;;;;;4.50;4.40;;;;;;;;;;4979750;28;20445;-93
2022/07/31 03:56:58;;;;;;;5.27;5.07;;;;;;;;;;5012284;28;20427;-95
2022/07/31 03:59:27;;;;;;;5.07;4.87;;;;;;;;;;4995978;28;20412;-93
2022/07/31 04:01:53;;;;;;;5.23;4.97;;;;;;;;;;4994072;28;20466;-94
2022/07/31 04:04:19;;;;;;;5.13;5.03;;;;;;;;;;4997203;28;20440;-94
2022/07/31 04:06:45;;;;;;;5.03;4.67;;;;;;;;;;4976483;28;20473;-95
2022/07/31 04:09:12;;;;;;;5.87;5.50;;;;;;;;;;4997852;28;20471;-93
2022/07/31 04:11:38;;;;;;;4.87;4.73;;;;;;;;;;5010910;28;20431;-95
2022/07/31 04:14:07;;;;;;;5.57;5.17;;;;;;;;;;4992275;28;20455;-93
2022/07/31 04:16:33;;;;;;;4.33;4.13;;;;;;;;;;5010921;28;20436;-95
2022/07/31 04:18:59;;;;;;;5.80;5.60;;;;;;;;;;5013110;28;20449;-94
2022/07/31 04:21:25;;;;;;;4.27;4.13;;;;;;;;;;4994049;28;20430;-94
2022/07/31 04:23:51;;;;;;;4.13;3.90;;;;;;;;;;5004395;28;20759;-94
2022/07/31 04:26:18;;;;;;;3.70;3.60;;;;;;;;;;4997381;28;20462;-95
2022/07/31 04:28:44;;;;;;;3.93;3.83;;;;;;;;;;5031900;28;20423;-94
2022/07/31 04:31:10;;;;;;;4.30;4.10;;;;;;;;;;4990494;28;20469;-94
2022/07/31 04:33:36;;;;;;;3.60;3.50;;;;;;;;;;5012452;28;20440;-94
2022/07/31 04:36:02;;;;;;;3.70;3.60;;;;;;;;;;5012876;28;20417;-94
2022/07/31 04:38:28;;;;;;;5.00;3.67;;;;;;;;;;4974853;28;20426;-95
2022/07/31 04:40:54;;;;;;;4.00;3.90;;;;;;;;;;5013573;28;20435;-94
2022/07/31 04:43:20;;;;;;;4.13;3.83;;;;;;;;;;4995096;28;20467;-95
2022/07/31 04:45:46;;;;;;;3.73;3.60;;;;;;;;;;5013657;28;20463;-94
2022/07/31 04:48:13;;;;;;;3.77;3.67;;;;;;;;;;4992381;28;20516;-93
2022/07/31 04:50:39;;;;;;;3.73;3.63;;;;;;;;;;4976889;28;20465;-94
2022/07/31 04:53:05;;;;;;;3.63;3.63;;;;;;;;;;4968631;28;20443;-93
2022/07/31 04:55:31;;;;;;;3.80;3.70;;;;;;;;;;4992574;28;20464;-93
2022/07/31 04:57:57;;;;;;;4.30;4.10;;;;;;;;;;4973217;28;20525;-94
2022/07/31 05:00:23;;;;;;;4.33;4.17;;;;;;;;;;4955095;29;20434;-95
2022/07/31 05:02:50;;;;;;;4.43;4.20;;;;;;;;;;4989485;28;20441;-94
2022/07/31 05:05:17;;;;;;;4.50;4.20;;;;;;;;;;4973869;28;20461;-94
2022/07/31 05:07:43;;;;;;;4.80;4.60;;;;;;;;;;4994944;28;20444;-93
2022/07/31 05:11:21;;;;;;;9.50;4.97;;;;;;;;;;4992625;28;20457;-94
2022/07/31 05:12:58;;;;;;;4.87;4.60;;;;;;;;;;4983716;28;20417;-94
2022/07/31 05:15:31;;;;;;;4.47;4.20;;;;;;;;;;4970544;28;20430;-94
2022/07/31 05:17:57;;;;;;;4.57;4.23;;;;;;;;;;4993922;28;20464;-94
2022/07/31 05:20:28;;;;;;;4.97;4.57;;;;;;;;;;4975957;28;20456;-92
2022/07/31 05:22:54;;;;;;;4.83;4.60;;;;;;;;;;4976946;28;20580;-94
2022/07/31 05:25:20;;;;;;;5.17;4.67;;;;;;;;;;4973313;28;20461;-95
2022/07/31 05:27:47;;;;;;;6.17;4.87;;;;;;;;;;4995736;28;20411;-90
2022/07/31 05:30:13;;;;;;;5.07;4.87;;;;;;;;;;4969095;28;20445;-92
2022/07/31 05:32:39;;;;;;;4.83;4.73;;;;;;;;;;4994580;28;20484;-94
2022/07/31 05:35:05;;;;;;;4.30;4.07;;;;;;;;;;4995046;28;20704;-90
2022/07/31 05:37:37;;;;;;;5.10;4.90;;;;;;;;;;4977871;28;20464;-94
2022/07/31 05:40:03;;;;;;;4.33;4.13;;;;;;;;;;4991985;28;20990;-90
2022/07/31 05:42:29;;;;;;;5.50;5.30;;;;;;;;;;4972613;28;20461;-93
2022/07/31 05:44:58;;;;;;;4.90;4.70;;;;;;;;;;4977369;28;20493;-94
2022/07/31 05:47:24;;;;;;;4.20;4.08;;;;;;;;;;4268951;28;10022420;-94
2022/07/31 05:49:50;;;;;;;4.40;4.20;;;;;;;;;;4972530;28;20460;-94
2022/07/31 05:52:17;;;;;;;5.40;4.97;;;;;;;;;;4988268;28;20433;-92
2022/07/31 05:54:44;;;;;;;4.97;4.67;;;;;;;;;;4969921;28;20452;-94
2022/07/31 05:57:10;;;;;;;4.70;4.40;;;;;;;;;;4970525;28;20433;-95
2022/07/31 05:59:36;;;;;;;4.97;4.70;;;;;;;;;;4968612;28;20437;-94
2022/07/31 06:02:03;;;;;;;5.03;4.90;;;;;;;;;;4966927;28;20476;-92
2022/07/31 06:04:31;;;;;;;5.10;4.90;;;;;;;;;;4987919;28;20561;-95
2022/07/31 06:06:58;;;;;;;5.10;4.83;;;;;;;;;;4968522;28;20440;-95
2022/07/31 06:09:31;;;;;;;4.87;4.63;;;;;;;;;;5005587;28;20428;-94
2022/07/31 06:11:58;;;;;;;4.73;4.60;;;;;;;;;;4969430;28;20437;-93
2022/07/31 06:14:26;;;;;;;4.53;4.43;;;;;;;;;;4999664;28;20437;-95
2022/07/31 06:16:52;;;;;;;4.90;4.70;;;;;;;;;;4961197;28;20446;-94
2022/07/31 06:19:19;;;;;;;5.53;5.23;;;;;;;;;;4988011;28;20444;-94
2022/07/31 06:21:45;;;;;;;5.03;4.73;;;;;;;;;;4972037;28;20468;-95
2022/07/31 06:24:11;;;;;;;5.33;4.93;;;;;;;;;;4980607;28;20430;-94
2022/07/31 06:26:37;;;;;;;5.57;5.27;;;;;;;;;;4987985;28;20500;-95
2022/07/31 06:29:04;;;;;;;4.97;4.87;;;;;;;;;;4980355;28;20440;-95
2022/07/31 06:31:33;;;;;;;4.77;4.67;;;;;;;;;;4968591;28;20451;-95
2022/07/31 06:34:01;;;;;;;5.30;5.07;;;;;;;;;;4986154;28;20440;-95
2022/07/31 06:36:28;;;;;;;4.70;4.50;;;;;;;;;;4949074;28;20438;-94
2022/07/31 06:38:54;;;;;;;5.17;4.90;;;;;;;;;;4999556;28;20421;-89
2022/07/31 06:44:10;;;;;;;5.53;5.00;;;;;;;;;;4969583;29;20458;-90
2022/07/31 06:46:36;;;;;;;4.43;4.23;;;;;;;;;;4988144;28;20473;-94
2022/07/31 06:49:05;;;;;;;4.50;4.30;;;;;;;;;;4989078;28;20997;-93
2022/07/31 06:51:31;;;;;;;4.93;4.73;;;;;;;;;;5009740;28;20415;-92
2022/07/31 06:53:58;;;;;;;4.60;4.50;;;;;;;;;;5008403;28;20441;-95
2022/07/31 06:56:24;;;;;;;4.53;4.33;;;;;;;;;;5083091;23;21061;-92
2022/07/31 07:11:55;;;;;;;6.17;3.90;;;;;;;;;;5128085;23;20757;-91
2022/07/31 07:17:35;;;;;;;4.33;4.03;;;;;;;;;;5004619;28;20439;-91
2022/07/31 07:20:16;;;;;;;4.30;3.97;;;;;;;;;;5016738;28;20411;-92
2022/07/31 07:22:47;;;;;;;3.13;3.13;;;;;;;;;;5023429;28;20565;-92
2022/07/31 07:25:22;;;;;;;3.20;3.20;;;;;;;;;;5014471;28;20471;-92
2022/07/31 07:28:14;;;;;;;3.30;3.10;;;;;;;;;;5008571;28;20626;-93
2022/07/31 07:30:50;;;;;;;;;;;;;;;;;;;;;
2022/07/31 07:36:14;;;;;;;3.53;3.33;;;;;;;;;;5714737;23;20470;-93
2022/07/31 07:46:47;;;;;;;2.50;2.50;;;;;;;;;;5008450;23;20501;-92
2022/07/31 07:49:24;;;;;;;3.10;2.87;;;;;;;;;;5010734;28;20427;-90
2022/07/31 07:51:55;;;;;;;2.90;2.80;;;;;;;;;;5014351;28;20400;-92
2022/07/31 07:54:21;;;;;;;2.60;2.60;;;;;;;;;;5020928;28;20556;-94
2022/07/31 07:56:47;;;;;;;2.30;2.30;;;;;;;;;;4995351;28;20471;-93
2022/07/31 07:59:40;;;;;;;2.50;2.40;;;;;;;;;;4996463;28;20447;-92
2022/07/31 08:02:09;;;;;;;2.50;2.50;;;;;;;;;;5010539;28;20431;-92
2022/07/31 08:04:35;;;;;;;2.70;2.70;;;;;;;;;;5010645;28;20527;-92
2022/07/31 08:07:04;;;;;;;2.27;2.17;;;;;;;;;;5019306;28;20471;-92
2022/07/31 08:09:33;;;;;;;2.30;2.30;;;;;;;;;;5024531;28;20427;-93
2022/07/31 08:11:59;;;;;;;2.30;2.30;;;;;;;;;;5034886;28;20434;-92
2022/07/31 08:14:26;;;;;;;2.80;2.60;;;;;;;;;;5045436;28;20449;-93
2022/07/31 08:16:57;;;;;;;2.77;2.67;;;;;;;;;;5006988;28;20478;-91
2022/07/31 08:19:24;;;;;;;2.60;2.60;;;;;;;;;;5034857;28;20423;-93
2022/07/31 08:21:50;;;;;;;2.53;2.43;;;;;;;;;;5033582;28;20427;-92
2022/07/31 08:24:25;;;;;;;2.30;2.20;;;;;;;;;;5016815;28;20447;-93
2022/07/31 08:29:36;;;;;;;3.50;3.40;;;;;;;;;;5034194;28;20410;-94
2022/07/31 08:32:02;;;;;;;2.40;2.40;;;;;;;;;;5034971;28;20443;-93
2022/07/31 08:34:31;;;;;;;2.20;2.20;;;;;;;;;;5071465;23;20480;-93
2022/07/31 08:36:59;;;;;;;2.63;2.63;;;;;;;;;;5036191;28;20470;-92
2022/07/31 08:39:37;;;;;;;2.20;2.10;;;;;;;;;;5062528;23;20489;-91
2022/07/31 08:57:53;;;;;;;2.03;2.03;;;;;;;;;;5181467;23;21053;-92
2022/07/31 10:26:36;;;;;;;2.33;2.10;;;;;;;;;;5103677;23;20523;-90
2022/07/31 10:45:01;;;;;;;2.23;2.20;;;;;;;;;;5025721;28;20521;-91
2022/07/31 10:47:29;;;;;;;2.40;2.40;;;;;;;;;;4991841;28;20432;-91
2022/07/31 10:50:01;;;;;;;1.80;1.80;;;;;;;;;;5029478;28;20454;-92
2022/07/31 10:52:27;;;;;;;3.33;2.37;;;;;;;;;;5008140;28;20446;-92
2022/07/31 10:54:57;;;;;;;2.73;2.53;;;;;;;;;;4995097;28;20466;-90
2022/07/31 11:23:43;;;;;;;2.97;2.77;;;;;;;;;;5079609;23;20617;-92
2022/07/31 11:26:12;;;;;;;3.23;3.10;;;;;;;;;;5011011;28;20529;-91
2022/07/31 11:28:43;;;;;;;2.67;2.60;;;;;;;;;;5029825;28;20735;-91
2022/07/31 11:31:14;;;;;;;2.40;2.40;;;;;;;;;;5010182;28;20436;-91
2022/07/31 11:36:36;;;;;;;3.23;3.03;;;;;;;;;;5165891;23;20515;-93
2022/07/31 11:39:11;;;;;;;2.47;2.47;;;;;;;;;;5008533;28;20423;-90
2022/07/31 11:41:47;;;;;;;2.87;2.70;;;;;;;;;;4994373;28;20507;-91
2022/07/31 11:44:45;;;;;;;2.53;2.37;;;;;;;;;;4992640;28;20424;-90
2022/07/31 11:47:12;;;;;;;2.87;2.70;;;;;;;;;;4988582;28;20441;-91
2022/07/31 11:49:44;;;;;;;2.60;2.50;;;;;;;;;;5003585;28;20431;-92
2022/07/31 11:52:14;;;;;;;4.80;2.70;;;;;;;;;;4994464;28;20551;-92
2022/07/31 11:54:41;;;;;;;2.90;2.87;;;;;;;;;;5010273;28;20457;-93
2022/07/31 11:57:33;;;;;;;5.13;3.70;;;;;;;;;;5009027;28;20393;-93
2022/07/31 12:00:21;;;;;;;2.30;2.30;;;;;;;;;;5013411;28;20926;-92
2022/07/31 12:02:48;;;;;;;2.67;2.67;;;;;;;;;;4996020;28;20432;-93
2022/07/31 12:05:23;;;;;;;2.27;2.27;;;;;;;;;;5017781;28;20458;-92
2022/07/31 12:29:52;;;;;;;2.73;2.63;;;;;;;;;;5018114;28;20929;-91
2022/07/31 13:28:43;;;;;;;3.10;3.10;;;;;;;;;;4707861;23;10001963;-92
2022/07/31 13:31:34;;;;;;;3.77;3.70;;;;;;;;;;5038739;28;20423;-93
2022/07/31 13:34:16;;;;;;;4.13;3.63;;;;;;;;;;5007982;28;20513;-93
2022/07/31 13:36:43;;;;;;;2.80;2.80;;;;;;;;;;5016898;28;20415;-92
2022/07/31 13:39:29;;;;;;;3.20;3.20;;;;;;;;;;5443019;23;20600;-93
2022/07/31 13:42:01;;;;;;;3.57;3.27;;;;;;;;;;4987633;28;20422;-93
2022/07/31 13:47:31;;;;;;;4.00;3.70;;;;;;;;;;5036147;23;20518;-94
2022/07/31 13:50:00;;;;;;;3.33;3.33;;;;;;;;;;5010592;28;20428;-92
2022/07/31 13:52:32;;;;;;;3.30;3.10;;;;;;;;;;5009995;28;20456;-92
2022/07/31 13:55:00;;;;;;;3.60;3.50;;;;;;;;;;4976339;28;20464;-91
2022/07/31 14:59:42;;;;;;;4.40;4.23;;;;;;;;;;5041245;23;20511;-93
2022/07/31 15:07:48;;;;;;;4.80;3.60;;;;;;;;;;5047560;28;20466;-92
2022/07/31 15:13:07;;;;;;;3.00;3.00;;;;;;;;;;5030952;23;20859;-90
2022/07/31 15:18:19;;;;;;;3.37;3.37;;;;;;;;;;5444084;23;20501;-93
2022/07/31 15:24:07;;;;;;;3.83;3.53;;;;;;;;;;4992965;28;20458;-93
2022/07/31 15:26:41;;;;;;;3.33;3.23;;;;;;;;;;5021831;28;20451;-93
2022/07/31 15:32:14;;;;;;;3.67;3.67;;;;;;;;;;4996090;28;20566;-88
2022/07/31 15:34:41;;;;;;;4.57;4.27;;;;;;;;;;5005705;28;20433;-93
2022/07/31 15:40:21;;;;;;;5.40;5.10;;;;;;;;;;5037210;23;20576;-93
2022/07/31 16:25:36;;;;;;;7.27;6.83;;;;;;;;;;4639114;28;10002297;-93
2022/07/31 16:28:38;;;;;;;6.47;6.17;;;;;;;;;;4969142;28;20199;-91
2022/07/31 16:31:09;;;;;;;5.47;5.27;;;;;;;;;;4978682;28;20469;-92
2022/07/31 16:33:35;;;;;;;6.83;6.63;;;;;;;;;;4969411;28;20425;-94
2022/07/31 16:36:18;;;;;;;6.97;6.37;;;;;;;;;;4984620;28;20453;-93
2022/07/31 16:38:59;;;;;;;8.27;7.77;;;;;;;;;;4990437;28;20468;-91
2022/07/31 16:41:31;;;;;;;7.90;7.40;;;;;;;;;;4998843;28;20442;-91
2022/07/31 16:44:15;;;;;;;6.30;5.90;;;;;;;;;;4988604;28;20425;-91
2022/07/31 16:46:54;;;;;;;5.90;5.70;;;;;;;;;;4968342;28;21015;-92
2022/07/31 16:49:23;;;;;;;5.90;5.80;;;;;;;;;;4978283;28;20440;-91
2022/07/31 17:21:59;;;;;;;9.50;6.57;;;;;;;;;;5027672;28;20571;-91
2022/07/31 17:24:25;;;;;;;6.43;6.03;;;;;;;;;;5045456;23;20503;-93
2022/07/31 17:26:51;;;;;;;6.90;6.30;;;;;;;;;;4996162;28;20571;-93
2022/07/31 17:29:26;;;;;;;6.73;5.80;;;;;;;;;;5215986;23;20582;-92
2022/07/31 17:31:56;;;;;;;8.90;7.23;;;;;;;;;;5385888;23;20490;-92
2022/07/31 17:37:16;;;;;;;12.77;8.90;;;;;;;;;;4998142;28;20474;-93
2022/07/31 17:39:53;;;;;;;6.10;5.70;;;;;;;;;;5215890;23;20481;-93
2022/07/31 17:50:04;;;;;;;10.83;10.03;;;;;;;;;;5499029;23;20495;-94
2022/07/31 17:52:32;;;;;;;8.43;7.90;;;;;;;;;;5027691;28;20431;-94
2022/07/31 17:55:05;;;;;;;7.20;6.60;;;;;;;;;;5017650;28;20488;-91
2022/07/31 18:02:43;;;;;;;5.80;5.40;;;;;;;;;;5255488;23;20526;-95
2022/07/31 18:05:13;;;;;;;4.90;4.50;;;;;;;;;;5030090;28;20478;-91
2022/07/31 18:07:42;;;;;;;7.87;7.37;;;;;;;;;;5553029;22;20797;-93
2022/07/31 18:10:10;;;;;;;5.87;5.47;;;;;;;;;;4992584;28;20458;-94
2022/07/31 18:12:37;;;;;;;5.60;5.27;;;;;;;;;;5064649;23;20460;-92
2022/07/31 18:15:13;;;;;;;6.10;5.80;;;;;;;;;;5189649;23;20491;-90
2022/07/31 18:17:42;;;;;;;6.73;6.33;;;;;;;;;;5508735;23;20542;-94
2022/07/31 19:04:17;;;;;;;7.63;7.03;;;;;;;;;;4959777;26;21193;-92
2022/07/31 19:06:43;;;;;;;7.87;7.27;;;;;;;;;;4985699;28;20839;-89
2022/07/31 19:09:10;;;;;;;7.20;6.70;;;;;;;;;;4991953;28;20934;-90
2022/07/31 19:11:36;;;;;;;8.60;8.03;;;;;;;;;;4993377;28;21053;-92
2022/07/31 19:14:02;;;;;;;9.50;8.90;;;;;;;;;;4991588;28;20448;-91
2022/07/31 19:16:28;;;;;;;9.20;8.50;;;;;;;;;;4995542;28;20479;-91
2022/07/31 19:18:57;;;;;;;11.37;10.27;;;;;;;;;;4994880;28;20428;-92
2022/07/31 19:21:23;;;;;;;11.70;10.70;;;;;;;;;;4994438;28;20436;-90
2022/07/31 19:23:49;;;;;;;12.83;11.70;;;;;;;;;;4988965;28;20444;-90
2022/07/31 19:26:15;;;;;;;12.00;9.80;;;;;;;;;;4990122;28;20475;-88
2022/07/31 19:28:42;;;;;;;12.27;11.13;;;;;;;;;;4989825;28;21037;-89
2022/07/31 19:31:08;;;;;;;15.97;13.83;;;;;;;;;;4990124;28;20455;-90
2022/07/31 19:33:36;;;;;;;16.03;12.87;;;;;;;;;;4991207;28;20428;-88
2022/07/31 19:36:02;;;;;;;17.10;15.40;;;;;;;;;;4988330;28;20463;-90
2022/07/31 19:38:29;;;;;;;14.80;13.60;;;;;;;;;;4990818;28;20427;-90
2022/07/31 19:40:55;;;;;;;16.77;15.40;;;;;;;;;;4989860;28;20428;-91
2022/07/31 19:43:21;;;;;;;18.77;16.93;;;;;;;;;;4994345;28;20423;-92
2022/07/31 19:45:47;;;;;;;15.77;14.33;;;;;;;;;;4994383;28;20452;-90
2022/07/31 19:48:13;;;;;;;14.30;12.90;;;;;;;;;;4992467;28;20444;-90
2022/07/31 19:50:39;;;;;;;14.87;13.47;;;;;;;;;;4996634;28;20424;-92
2022/07/31 19:53:05;;;;;;;17.87;13.80;;;;;;;;;;4993795;28;20443;-92
2022/07/31 19:55:31;;;;;;;14.20;12.90;;;;;;;;;;4996835;28;20440;-92
2022/07/31 19:57:57;;;;;;;15.60;14.10;;;;;;;;;;4996107;28;20444;-90
2022/07/31 20:00:23;;;;;;;13.37;12.23;;;;;;;;;;4992412;28;20811;-92
2022/07/31 20:02:49;;;;;;;13.27;12.27;;;;;;;;;;4991135;28;20976;-91
2022/07/31 20:05:16;;;;;;;13.70;12.60;;;;;;;;;;4991493;28;20467;-91
2022/07/31 20:07:42;;;;;;;15.80;14.40;;;;;;;;;;4996568;28;20505;-90
2022/07/31 20:10:08;;;;;;;16.77;13.60;;;;;;;;;;4996469;28;20444;-90
2022/07/31 20:12:34;;;;;;;12.97;11.83;;;;;;;;;;4992974;28;20792;-91
2022/07/31 20:15:00;;;;;;;13.90;12.87;;;;;;;;;;4997743;28;20444;-90
2022/07/31 20:17:27;;;;;;;13.43;12.40;;;;;;;;;;4996040;28;20452;-90
2022/07/31 20:19:53;;;;;;;11.90;11.10;;;;;;;;;;4994804;28;20471;-91
2022/07/31 20:22:20;;;;;;;11.97;10.90;;;;;;;;;;4992539;28;20456;-90
2022/07/31 20:24:45;;;;;;;12.90;11.80;;;;;;;;;;4996763;28;20408;-90
2022/07/31 20:27:11;;;;;;;13.17;11.97;;;;;;;;;;4995040;28;20487;-91
2022/07/31 20:29:37;;;;;;;12.30;11.40;;;;;;;;;;4997451;28;20436;-90
2022/07/31 20:32:04;;;;;;;11.80;10.70;;;;;;;;;;4995271;28;20428;-89
2022/07/31 20:34:30;;;;;;;12.13;11.03;;;;;;;;;;4997168;28;20432;-91
2022/07/31 20:36:59;;;;;;;12.57;10.67;;;;;;;;;;4995790;28;20464;-88
2022/07/31 20:39:25;;;;;;;12.83;10.47;;;;;;;;;;4997079;28;20416;-90
2022/07/31 20:41:51;;;;;;;11.73;9.67;;;;;;;;;;4993052;28;20515;-90
2022/07/31 20:44:17;;;;;;;17.07;11.00;;;;;;;;;;4994950;28;20455;-90
2022/07/31 20:46:43;;;;;;;10.57;9.80;;;;;;;;;;4989188;28;20468;-90
2022/07/31 20:49:09;;;;;;;10.93;10.10;;;;;;;;;;4991659;28;21009;-90
2022/07/31 20:51:35;;;;;;;11.13;10.33;;;;;;;;;;4990593;28;20439;-90
2022/07/31 20:54:01;;;;;;;11.30;10.37;;;;;;;;;;4999920;28;20401;-91
2022/07/31 20:56:27;;;;;;;11.67;10.67;;;;;;;;;;4993953;28;22744;-90
2022/07/31 20:58:54;;;;;;;9.93;9.03;;;;;;;;;;4992827;28;20966;-89
2022/07/31 21:01:20;;;;;;;11.73;10.53;;;;;;;;;;4991069;28;20436;-90
2022/07/31 21:03:46;;;;;;;10.80;9.90;;;;;;;;;;4993103;28;20549;-89
2022/07/31 21:06:13;;;;;;;12.03;11.13;;;;;;;;;;4991624;28;20484;-90
2022/07/31 21:08:39;;;;;;;12.03;11.13;;;;;;;;;;4979118;28;20524;-91
2022/07/31 21:11:05;;;;;;;11.93;10.83;;;;;;;;;;4992399;28;20847;-90
2022/07/31 21:13:31;;;;;;;11.53;10.63;;;;;;;;;;4993698;28;20449;-90
2022/07/31 21:15:57;;;;;;;10.57;9.70;;;;;;;;;;4991012;28;20433;-88
2022/07/31 21:18:24;;;;;;;11.67;10.83;;;;;;;;;;4995823;28;20460;-90
2022/07/31 21:20:50;;;;;;;11.50;10.40;;;;;;;;;;4996561;28;20433;-91
2022/07/31 21:23:16;;;;;;;11.10;10.00;;;;;;;;;;4979640;28;20981;-91
2022/07/31 21:25:42;;;;;;;10.60;9.70;;;;;;;;;;4988759;28;20476;-90
2022/07/31 21:28:09;;;;;;;10.90;9.97;;;;;;;;;;4989239;28;21129;-90
2022/07/31 21:30:36;;;;;;;12.70;11.60;;;;;;;;;;4987463;28;21005;-89
2022/07/31 21:33:02;;;;;;;11.80;10.70;;;;;;;;;;4987348;28;20444;-89
2022/07/31 21:35:29;;;;;;;11.60;10.70;;;;;;;;;;4989941;28;20519;-91
2022/07/31 21:37:55;;;;;;;10.53;9.73;;;;;;;;;;4987789;28;20519;-90
2022/07/31 21:40:22;;;;;;;11.93;10.73;;;;;;;;;;4992199;28;20427;-89
2022/07/31 21:42:48;;;;;;;12.00;10.80;;;;;;;;;;5006407;28;20438;-89
2022/07/31 21:45:14;;;;;;;12.47;10.77;;;;;;;;;;5012043;28;20428;-88
2022/07/31 21:47:40;;;;;;;11.37;10.33;;;;;;;;;;4990481;28;20463;-88
2022/07/31 21:50:07;;;;;;;12.03;10.67;;;;;;;;;;4990916;28;20436;-88
2022/07/31 21:52:33;;;;;;;9.87;9.23;;;;;;;;;;4987141;28;20436;-89
2022/07/31 21:55:04;;;;;;;11.00;9.80;;;;;;;;;;4987567;28;20439;-89
2022/07/31 21:57:30;;;;;;;10.73;9.90;;;;;;;;;;4983391;28;20543;-89
2022/07/31 21:59:56;;;;;;;14.33;11.40;;;;;;;;;;4991756;28;20914;-89
2022/07/31 22:02:22;;;;;;;9.73;8.90;;;;;;;;;;4988058;28;20443;-90
2022/07/31 22:07:46;;;;;;;9.63;9.03;;;;;;;;;;4980165;28;20455;-89
2022/07/31 22:10:13;;;;;;;10.57;9.57;;;;;;;;;;4990608;28;20440;-87
2022/07/31 22:12:39;;;;;;;10.77;9.70;;;;;;;;;;4988740;28;20475;-89
2022/07/31 22:15:06;;;;;;;11.20;10.20;;;;;;;;;;4971719;28;20440;-90
2022/07/31 22:17:32;;;;;;;11.93;10.93;;;;;;;;;;4987890;28;20436;-89
2022/07/31 22:19:58;;;;;;;13.10;10.07;;;;;;;;;;4989953;28;20444;-89
2022/07/31 22:22:29;;;;;;;11.57;10.40;;;;;;;;;;4988635;28;20441;-90
2022/07/31 22:24:55;;;;;;;10.03;9.23;;;;;;;;;;4991080;28;20463;-89
2022/07/31 22:30:07;;;;;;;11.73;10.73;;;;;;;;;;4984274;28;20452;-89
2022/07/31 22:32:33;;;;;;;12.07;10.87;;;;;;;;;;4988132;28;20476;-90
2022/07/31 22:34:59;;;;;;;12.53;11.00;;;;;;;;;;4990029;28;20455;-89
2022/07/31 22:37:25;;;;;;;12.13;10.93;;;;;;;;;;4988121;28;21149;-89
2022/07/31 22:39:51;;;;;;;9.90;9.20;;;;;;;;;;4988091;28;20436;-90
2022/07/31 22:42:17;;;;;;;13.13;11.87;;;;;;;;;;4988012;28;20536;-90
2022/07/31 22:44:43;;;;;;;12.07;10.87;;;;;;;;;;4989040;28;20416;-88
2022/07/31 22:47:10;;;;;;;12.50;11.30;;;;;;;;;;4989597;28;20464;-90
2022/07/31 22:49:36;;;;;;;13.70;12.30;;;;;;;;;;4991001;28;20431;-88
2022/07/31 22:52:10;;;;;;;14.00;12.60;;;;;;;;;;4991626;28;20451;-89
2022/07/31 22:54:36;;;;;;;12.40;11.30;;;;;;;;;;4995153;28;20868;-89
2022/07/31 22:57:02;;;;;;;14.37;13.00;;;;;;;;;;4993412;28;20425;-90
2022/07/31 22:59:28;;;;;;;14.27;13.17;;;;;;;;;;4995001;28;20443;-88
2022/07/31 23:01:54;;;;;;;13.07;12.10;;;;;;;;;;4994914;28;20515;-91
2022/07/31 23:04:20;;;;;;;13.07;11.87;;;;;;;;;;4995681;28;20467;-88
2022/07/31 23:06:46;;;;;;;15.30;12.80;;;;;;;;;;4994576;28;20555;-90
2022/07/31 23:09:12;;;;;;;12.50;11.30;;;;;;;;;;4998108;28;20460;-89
2022/07/31 23:11:38;;;;;;;13.27;12.03;;;;;;;;;;4992258;28;20438;-89